Time;durP1;ratioP1;P1;durP2;ratioP2;P2;SDS_P1;SDS_P2;PMS_P1;PMS_P2;Temp;Humidity;BMP_temperature;BMP_pressure;BME280_temperature;BME280_humidity;BME280_pressure;Samples;Min_cycle;Max_cycle;Signal;HPM_P1;HPM_P2
2023/12/09 00:00:43;;;;;;;1.63;1.30;;;7.20;98.20;;;;;;5011029;28;20482;-77
2023/12/09 00:03:11;;;;;;;1.60;1.30;;;7.20;98.20;;;;;;5020701;28;20481;-77
2023/12/09 00:05:39;;;;;;;1.63;1.20;;;7.20;98.20;;;;;;5020394;28;20473;-78
2023/12/09 00:08:06;;;;;;;1.60;1.30;;;7.20;98.20;;;;;;5016418;28;20493;-78
2023/12/09 00:10:34;;;;;;;1.60;1.20;;;7.20;98.20;;;;;;5019946;28;20562;-77
2023/12/09 00:13:01;;;;;;;1.60;1.30;;;7.20;98.20;;;;;;5026449;28;20916;-77
2023/12/09 00:15:28;;;;;;;1.90;1.70;;;7.20;98.20;;;;;;5015862;28;20810;-78
2023/12/09 00:17:55;;;;;;;1.70;1.30;;;7.20;98.20;;;;;;5019964;28;20907;-77
2023/12/09 00:20:24;;;;;;;1.60;1.20;;;7.20;98.20;;;;;;5013610;28;20463;-77
2023/12/09 00:22:51;;;;;;;1.60;1.30;;;7.20;98.20;;;;;;5025520;28;20524;-78
2023/12/09 00:25:18;;;;;;;1.60;1.20;;;7.20;98.20;;;;;;5012130;28;20460;-78
2023/12/09 00:27:45;;;;;;;1.60;1.30;;;7.30;98.20;;;;;;5016279;28;20491;-78
2023/12/09 00:30:13;;;;;;;1.60;1.30;;;7.30;98.20;;;;;;5019548;28;20463;-79
2023/12/09 00:32:40;;;;;;;1.67;1.30;;;7.30;98.20;;;;;;5022200;28;20506;-79
2023/12/09 00:35:07;;;;;;;1.67;1.30;;;7.20;98.20;;;;;;5013097;28;20467;-79
2023/12/09 00:37:36;;;;;;;1.67;1.30;;;7.20;98.20;;;;;;5020689;28;20486;-79
2023/12/09 00:40:03;;;;;;;1.60;1.20;;;7.20;98.20;;;;;;5016627;28;20472;-79
2023/12/09 00:42:30;;;;;;;1.60;1.20;;;7.20;98.20;;;;;;5023209;28;20607;-79
2023/12/09 00:44:57;;;;;;;1.60;1.30;;;7.10;98.20;;;;;;5016455;28;20468;-79
2023/12/09 00:47:24;;;;;;;1.60;1.20;;;7.10;98.20;;;;;;5017597;28;21170;-78
2023/12/09 00:49:52;;;;;;;1.60;1.30;;;7.10;98.20;;;;;;5015895;28;20962;-79
2023/12/09 00:52:18;;;;;;;1.70;1.30;;;7.10;98.20;;;;;;5018809;28;20489;-79
2023/12/09 00:54:47;;;;;;;1.60;1.30;;;7.10;98.20;;;;;;5017702;28;20539;-79
2023/12/09 00:57:14;;;;;;;1.60;1.30;;;7.10;98.20;;;;;;5018605;28;20575;-78
2023/12/09 00:59:41;;;;;;;1.70;1.30;;;7.10;98.20;;;;;;5018860;28;20575;-79
2023/12/09 01:02:08;;;;;;;1.70;1.50;;;7.00;98.20;;;;;;5016339;28;20588;-78
2023/12/09 01:04:35;;;;;;;1.60;1.30;;;7.00;98.20;;;;;;5024982;28;20471;-79
2023/12/09 01:07:03;;;;;;;1.63;1.30;;;6.90;98.20;;;;;;5013488;28;20580;-78
2023/12/09 01:09:30;;;;;;;1.60;1.30;;;6.90;98.20;;;;;;5019363;28;20472;-78
2023/12/09 01:11:59;;;;;;;1.67;1.30;;;6.90;98.20;;;;;;5013326;28;20478;-79
2023/12/09 01:14:26;;;;;;;1.60;1.20;;;6.90;98.20;;;;;;5024241;28;20469;-78
2023/12/09 01:16:53;;;;;;;1.60;1.20;;;6.80;98.20;;;;;;5014380;28;20589;-79
2023/12/09 01:19:20;;;;;;;1.60;1.30;;;6.80;98.20;;;;;;5019998;28;20889;-78
2023/12/09 01:21:48;;;;;;;1.60;1.30;;;6.80;98.20;;;;;;5017770;28;21150;-78
2023/12/09 01:24:15;;;;;;;1.60;1.30;;;6.80;98.20;;;;;;5029224;28;20621;-78
2023/12/09 01:26:42;;;;;;;1.60;1.23;;;6.80;98.20;;;;;;5008314;28;20514;-78
2023/12/09 01:29:10;;;;;;;1.67;1.40;;;6.80;98.20;;;;;;5023654;28;20819;-79
2023/12/09 01:31:37;;;;;;;1.60;1.20;;;6.80;98.20;;;;;;5007741;28;20886;-79
2023/12/09 01:34:04;;;;;;;1.70;1.37;;;6.80;98.20;;;;;;5022625;28;20488;-79
2023/12/09 01:36:31;;;;;;;1.70;1.40;;;6.90;98.20;;;;;;5018257;28;20509;-79
2023/12/09 01:38:57;;;;;;;2.03;1.67;;;6.90;98.20;;;;;;5022736;28;21034;-79
2023/12/09 01:41:24;;;;;;;1.60;1.20;;;6.90;98.20;;;;;;5019538;28;20557;-79
2023/12/09 01:43:51;;;;;;;1.67;1.30;;;6.90;98.20;;;;;;5043262;28;20498;-79
2023/12/09 01:46:21;;;;;;;1.60;1.30;;;6.90;98.20;;;;;;5038532;22;20494;-85
2023/12/09 01:48:48;;;;;;;1.60;1.20;;;6.80;98.20;;;;;;5050795;28;20767;-85
2023/12/09 01:51:17;;;;;;;1.60;1.30;;;6.80;98.20;;;;;;5039694;28;20625;-85
2023/12/09 01:53:44;;;;;;;1.60;1.30;;;6.80;98.20;;;;;;5035587;28;20526;-86
2023/12/09 01:56:13;;;;;;;1.60;1.20;;;6.80;98.20;;;;;;5023856;28;20650;-86
2023/12/09 01:58:41;;;;;;;1.60;1.30;;;6.70;98.20;;;;;;5048969;28;20558;-85
2023/12/09 02:01:09;;;;;;;1.70;1.30;;;6.70;98.20;;;;;;5025795;28;20476;-85
2023/12/09 02:03:38;;;;;;;1.60;1.20;;;6.70;98.20;;;;;;5028326;28;20490;-85
2023/12/09 02:06:05;;;;;;;1.60;1.20;;;6.60;98.20;;;;;;5021549;28;20558;-85
2023/12/09 02:08:32;;;;;;;1.60;1.30;;;6.60;98.20;;;;;;5031169;28;20463;-84
2023/12/09 02:11:09;;;;;;;1.60;1.30;;;6.60;98.20;;;;;;5025655;28;20528;-85
2023/12/09 02:13:44;;;;;;;1.63;1.30;;;6.60;98.20;;;;;;5028254;28;20550;-84
2023/12/09 02:16:15;;;;;;;1.60;1.30;;;6.60;98.20;;;;;;5019106;28;20510;-85
2023/12/09 02:18:45;;;;;;;1.60;1.30;;;6.50;98.20;;;;;;5028854;28;20548;-85
2023/12/09 02:21:12;;;;;;;1.60;1.30;;;6.50;98.20;;;;;;5014832;28;21056;-83
2023/12/09 02:23:40;;;;;;;1.60;1.23;;;6.50;98.20;;;;;;5028768;28;20474;-85
2023/12/09 02:26:13;;;;;;;1.60;1.30;;;6.40;98.20;;;;;;5018487;28;20569;-84
2023/12/09 02:28:46;;;;;;;1.67;1.30;;;6.40;98.20;;;;;;5034885;28;20628;-85
2023/12/09 02:31:17;;;;;;;1.60;1.30;;;6.40;98.20;;;;;;5023349;28;20901;-86
2023/12/09 02:33:44;;;;;;;1.60;1.30;;;6.50;98.20;;;;;;5032230;28;20465;-85
2023/12/09 02:36:14;;;;;;;1.63;1.30;;;6.50;98.20;;;;;;5010982;28;20576;-85
2023/12/09 02:38:44;;;;;;;1.60;1.20;;;6.40;98.20;;;;;;5028144;28;20464;-85
2023/12/09 02:41:11;;;;;;;1.60;1.20;;;6.40;98.20;;;;;;5008388;28;20478;-86
2023/12/09 02:43:38;;;;;;;1.63;1.30;;;6.40;98.20;;;;;;5028779;28;20487;-84
2023/12/09 02:46:05;;;;;;;1.60;1.30;;;6.40;98.20;;;;;;5017166;28;20486;-85
2023/12/09 02:48:32;;;;;;;1.63;1.30;;;6.40;98.20;;;;;;5033540;28;20745;-86
2023/12/09 02:50:59;;;;;;;1.60;1.20;;;6.40;98.20;;;;;;5007596;28;20479;-85
2023/12/09 02:53:25;;;;;;;1.60;1.30;;;6.40;98.20;;;;;;5046706;28;20466;-86
2023/12/09 02:55:53;;;;;;;1.60;1.30;;;6.40;98.20;;;;;;4996870;28;20471;-84
2023/12/09 02:58:20;;;;;;;1.63;1.30;;;6.40;98.20;;;;;;5022129;28;20501;-85
2023/12/09 03:00:47;;;;;;;1.63;1.30;;;6.40;98.20;;;;;;5017927;28;20495;-85
2023/12/09 03:03:14;;;;;;;1.60;1.20;;;6.40;98.20;;;;;;5030781;28;20517;-86
2023/12/09 03:05:41;;;;;;;1.60;1.30;;;6.30;98.20;;;;;;5021090;28;20475;-85
2023/12/09 03:08:08;;;;;;;2.10;1.90;;;6.30;98.20;;;;;;5022562;28;20498;-86
2023/12/09 03:10:34;;;;;;;1.67;1.30;;;6.30;98.20;;;;;;5015593;28;21134;-84
2023/12/09 03:13:02;;;;;;;1.63;1.30;;;6.30;98.20;;;;;;5023768;28;20475;-83
2023/12/09 03:15:29;;;;;;;1.67;1.30;;;6.30;98.20;;;;;;5019853;28;20479;-83
2023/12/09 03:17:56;;;;;;;1.67;1.30;;;6.30;98.20;;;;;;5032918;28;20588;-84
2023/12/09 03:20:25;;;;;;;1.60;1.30;;;6.40;98.20;;;;;;5020621;28;20859;-86
2023/12/09 03:22:51;;;;;;;1.70;1.40;;;6.40;98.20;;;;;;5015486;28;20483;-86
2023/12/09 03:25:19;;;;;;;1.67;1.30;;;6.40;98.20;;;;;;5018372;28;20497;-85
2023/12/09 03:27:45;;;;;;;1.70;1.40;;;6.40;98.20;;;;;;5014302;28;20548;-84
2023/12/09 03:30:14;;;;;;;1.63;1.30;;;6.30;98.20;;;;;;5021292;28;20475;-84
2023/12/09 03:32:41;;;;;;;1.60;1.30;;;6.30;98.20;;;;;;5019051;28;21008;-83
2023/12/09 03:35:09;;;;;;;1.60;1.40;;;6.30;98.20;;;;;;5005332;28;20465;-83
2023/12/09 03:37:36;;;;;;;1.63;1.30;;;6.30;98.20;;;;;;5017693;28;21056;-82
2023/12/09 03:40:04;;;;;;;1.60;1.40;;;6.30;98.20;;;;;;5020498;28;21029;-81
2023/12/09 03:42:31;;;;;;;1.70;1.40;;;6.30;98.20;;;;;;5015245;28;20505;-81
2023/12/09 03:44:58;;;;;;;1.67;1.27;;;6.30;98.20;;;;;;5036085;28;20483;-85
2023/12/09 03:47:26;;;;;;;1.63;1.33;;;6.30;98.20;;;;;;5011302;28;20475;-85
2023/12/09 03:49:53;;;;;;;1.67;1.33;;;6.30;98.20;;;;;;5035334;28;20464;-83
2023/12/09 03:52:19;;;;;;;1.63;1.30;;;6.20;98.20;;;;;;5016742;28;20483;-84
2023/12/09 03:54:46;;;;;;;1.63;1.30;;;6.20;98.20;;;;;;5031868;28;20470;-83
2023/12/09 03:57:14;;;;;;;1.70;1.40;;;6.20;98.20;;;;;;5022538;28;20497;-84
2023/12/09 03:59:41;;;;;;;1.67;1.37;;;6.20;98.20;;;;;;5031799;28;21010;-84
2023/12/09 04:02:08;;;;;;;1.60;1.30;;;6.20;98.20;;;;;;5016094;28;20472;-83
2023/12/09 04:04:40;;;;;;;1.63;1.30;;;6.20;98.20;;;;;;5025493;28;20489;-83
2023/12/09 04:07:07;;;;;;;1.60;1.20;;;6.20;98.20;;;;;;5012939;28;20570;-85
2023/12/09 04:09:34;;;;;;;1.60;1.30;;;6.20;98.20;;;;;;5024053;28;20543;-83
2023/12/09 04:12:01;;;;;;;1.70;1.50;;;6.30;98.20;;;;;;5005157;28;20484;-84
2023/12/09 04:14:27;;;;;;;1.60;1.30;;;6.30;98.20;;;;;;5025805;28;20467;-85
2023/12/09 04:16:54;;;;;;;1.60;1.27;;;6.20;98.20;;;;;;5009787;28;20487;-84
2023/12/09 04:19:21;;;;;;;1.60;1.30;;;6.20;98.20;;;;;;5019857;28;20494;-84
2023/12/09 04:21:49;;;;;;;1.60;1.30;;;6.20;98.20;;;;;;5004483;28;20549;-84
2023/12/09 04:24:17;;;;;;;1.60;1.30;;;6.20;98.20;;;;;;5040409;28;20559;-83
2023/12/09 04:26:44;;;;;;;2.33;2.13;;;6.20;98.20;;;;;;5028529;28;20494;-82
2023/12/09 04:29:11;;;;;;;1.70;1.30;;;6.10;98.20;;;;;;5033614;28;20984;-84
2023/12/09 04:31:38;;;;;;;1.70;1.40;;;6.10;98.20;;;;;;5014077;28;20482;-85
2023/12/09 04:34:05;;;;;;;1.60;1.20;;;6.10;98.20;;;;;;5033738;28;20490;-84
2023/12/09 04:36:32;;;;;;;1.67;1.30;;;6.10;98.20;;;;;;5001888;28;21227;-82
2023/12/09 04:39:00;;;;;;;1.60;1.30;;;6.10;98.20;;;;;;5012851;28;20488;-84
2023/12/09 04:41:27;;;;;;;1.67;1.30;;;6.10;98.20;;;;;;5017256;28;20494;-83
2023/12/09 04:43:54;;;;;;;1.60;1.30;;;6.10;98.20;;;;;;5026482;28;20493;-82
2023/12/09 04:46:20;;;;;;;1.63;1.30;;;6.10;98.20;;;;;;5020038;28;20487;-85
2023/12/09 04:48:47;;;;;;;1.60;1.30;;;6.10;98.20;;;;;;5050633;28;20953;-83
2023/12/09 04:51:14;;;;;;;1.60;1.30;;;6.10;98.20;;;;;;5037467;28;20478;-85
2023/12/09 04:53:41;;;;;;;1.60;1.30;;;6.10;98.20;;;;;;5043651;28;20478;-82
2023/12/09 04:56:10;;;;;;;1.70;1.40;;;6.10;98.20;;;;;;5025554;28;20534;-84
2023/12/09 04:58:37;;;;;;;1.60;1.30;;;6.10;98.20;;;;;;5038132;28;20503;-82
2023/12/09 05:01:03;;;;;;;1.60;1.30;;;6.10;98.20;;;;;;5023048;28;20473;-86
2023/12/09 05:03:31;;;;;;;1.63;1.30;;;6.00;98.20;;;;;;5049893;28;20523;-86
2023/12/09 05:05:59;;;;;;;1.63;1.30;;;6.00;98.20;;;;;;5035341;28;20471;-84
2023/12/09 05:08:25;;;;;;;1.70;1.40;;;6.10;98.20;;;;;;5041035;28;20462;-84
2023/12/09 05:10:52;;;;;;;1.63;1.30;;;6.10;98.20;;;;;;5033762;28;20778;-86
2023/12/09 05:13:20;;;;;;;1.60;1.27;;;6.10;98.20;;;;;;5038479;28;20636;-82
2023/12/09 05:15:48;;;;;;;1.63;1.30;;;6.10;98.20;;;;;;5041219;28;20488;-82
2023/12/09 05:18:15;;;;;;;1.60;1.30;;;6.10;98.20;;;;;;5043353;28;20772;-83
2023/12/09 05:20:42;;;;;;;1.70;1.40;;;6.20;98.20;;;;;;5046375;28;20540;-82
2023/12/09 05:23:08;;;;;;;1.60;1.30;;;6.20;98.20;;;;;;5053239;28;20537;-83
2023/12/09 05:25:35;;;;;;;1.60;1.30;;;6.30;98.20;;;;;;5053649;28;20577;-83
2023/12/09 05:28:02;;;;;;;1.70;1.40;;;6.30;98.20;;;;;;5034309;28;20569;-83
2023/12/09 05:30:31;;;;;;;1.70;1.30;;;6.30;98.20;;;;;;5047489;28;20450;-82
2023/12/09 05:32:58;;;;;;;1.60;1.20;;;6.30;98.20;;;;;;5034765;28;20474;-83
2023/12/09 05:35:25;;;;;;;1.63;1.30;;;6.30;98.20;;;;;;5030115;28;20484;-82
2023/12/09 05:37:52;;;;;;;1.63;1.30;;;6.30;98.20;;;;;;5032750;28;20488;-83
2023/12/09 05:40:19;;;;;;;1.70;1.40;;;6.30;98.20;;;;;;5029979;28;21003;-84
2023/12/09 05:42:46;;;;;;;3.10;2.90;;;6.30;98.20;;;;;;5040841;28;20474;-83
2023/12/09 05:45:13;;;;;;;1.70;1.40;;;6.30;98.20;;;;;;5050140;28;20487;-83
2023/12/09 05:47:41;;;;;;;1.70;1.30;;;6.30;98.20;;;;;;5048629;28;20485;-82
2023/12/09 05:50:09;;;;;;;1.60;1.20;;;6.30;98.20;;;;;;5048630;28;20490;-84
2023/12/09 05:52:36;;;;;;;1.63;1.23;;;6.30;98.20;;;;;;5029970;28;20574;-84
2023/12/09 05:55:03;;;;;;;1.60;1.30;;;6.30;98.20;;;;;;5044108;28;20456;-84
2023/12/09 05:57:30;;;;;;;1.60;1.30;;;6.30;98.20;;;;;;5039144;28;20481;-83
2023/12/09 05:59:56;;;;;;;1.63;1.30;;;6.30;98.20;;;;;;5043324;28;20547;-83
2023/12/09 06:02:23;;;;;;;1.67;1.30;;;6.30;98.20;;;;;;5036149;28;20479;-84
2023/12/09 06:04:51;;;;;;;1.60;1.27;;;6.30;98.20;;;;;;5034870;28;20488;-83
2023/12/09 06:07:18;;;;;;;1.60;1.30;;;6.30;98.20;;;;;;5034377;28;20566;-84
2023/12/09 06:09:45;;;;;;;1.60;1.20;;;6.30;98.20;;;;;;5036032;28;20462;-82
2023/12/09 06:12:12;;;;;;;1.63;1.30;;;6.30;98.20;;;;;;5029864;28;20479;-83
2023/12/09 06:14:38;;;;;;;1.60;1.30;;;6.20;98.20;;;;;;5038258;28;20526;-82
2023/12/09 06:17:05;;;;;;;1.60;1.23;;;6.20;98.20;;;;;;5043333;28;20485;-85
2023/12/09 06:19:32;;;;;;;1.67;1.30;;;6.30;98.20;;;;;;5048260;28;20459;-85
2023/12/09 06:22:00;;;;;;;1.60;1.30;;;6.30;98.20;;;;;;5027607;28;20542;-82
2023/12/09 06:24:27;;;;;;;1.70;1.40;;;6.40;98.20;;;;;;5051384;28;20489;-83
2023/12/09 06:26:54;;;;;;;1.60;1.30;;;6.40;98.20;;;;;;5032971;28;20549;-83
2023/12/09 06:29:20;;;;;;;1.60;1.30;;;6.50;98.20;;;;;;5043021;28;21036;-83
2023/12/09 06:31:47;;;;;;;1.60;1.30;;;6.50;98.20;;;;;;5029692;28;20485;-84
2023/12/09 06:34:14;;;;;;;1.60;1.30;;;6.60;98.20;;;;;;5044878;28;20965;-84
2023/12/09 06:36:41;;;;;;;1.60;1.30;;;6.60;98.20;;;;;;5037101;28;20477;-82
2023/12/09 06:39:09;;;;;;;1.60;1.23;;;6.60;98.20;;;;;;5035860;28;20461;-82
2023/12/09 06:41:39;;;;;;;4.17;3.77;;;6.60;98.20;;;;;;5026606;28;20511;-82
2023/12/09 06:44:06;;;;;;;1.60;1.20;;;6.60;98.20;;;;;;5043209;28;20493;-83
2023/12/09 06:46:36;;;;;;;1.60;1.23;;;6.60;98.20;;;;;;5027040;28;20482;-85
2023/12/09 06:49:03;;;;;;;1.60;1.30;;;6.50;98.20;;;;;;5045771;28;20542;-82
2023/12/09 06:51:30;;;;;;;1.70;1.40;;;6.50;98.20;;;;;;5031742;28;20478;-85
2023/12/09 06:53:56;;;;;;;1.63;1.30;;;6.60;98.20;;;;;;5042145;28;20957;-82
2023/12/09 06:56:25;;;;;;;1.60;1.20;;;6.50;98.20;;;;;;5033073;28;20497;-85
2023/12/09 06:58:52;;;;;;;1.60;1.27;;;6.50;98.20;;;;;;5043832;28;20530;-85
2023/12/09 07:01:21;;;;;;;1.67;1.20;;;6.50;98.20;;;;;;5032147;28;20561;-84
2023/12/09 07:03:48;;;;;;;1.60;1.20;;;6.50;98.20;;;;;;5048816;28;20458;-85
2023/12/09 07:06:16;;;;;;;1.63;1.30;;;6.50;98.20;;;;;;5032944;28;20478;-84
2023/12/09 07:08:44;;;;;;;1.60;1.30;;;6.50;98.20;;;;;;5049992;28;20887;-82
2023/12/09 07:11:11;;;;;;;1.60;1.30;;;6.60;98.20;;;;;;5027374;28;20519;-84
2023/12/09 07:13:39;;;;;;;1.70;1.40;;;6.70;98.20;;;;;;5033627;28;20514;-84
2023/12/09 07:16:08;;;;;;;1.60;1.23;;;6.70;98.20;;;;;;5028757;28;20515;-83
2023/12/09 07:18:35;;;;;;;1.60;1.20;;;6.70;98.20;;;;;;5036906;28;20475;-83
2023/12/09 07:21:02;;;;;;;1.70;1.30;;;6.70;98.20;;;;;;5030513;28;20485;-81
2023/12/09 07:23:29;;;;;;;1.70;1.30;;;6.70;98.20;;;;;;5051871;28;20467;-83
2023/12/09 07:25:56;;;;;;;1.60;1.20;;;6.80;98.20;;;;;;5035393;28;20924;-82
2023/12/09 07:28:23;;;;;;;1.60;1.20;;;6.80;98.20;;;;;;5034098;28;20550;-81
2023/12/09 07:30:52;;;;;;;1.87;1.60;;;6.80;98.20;;;;;;5031754;28;20463;-82
2023/12/09 07:33:19;;;;;;;1.70;1.40;;;6.80;98.20;;;;;;5049623;28;20464;-84
2023/12/09 07:35:46;;;;;;;1.67;1.30;;;6.80;98.20;;;;;;5037979;28;20558;-78
2023/12/09 07:38:13;;;;;;;1.60;1.20;;;6.80;98.20;;;;;;5027539;28;20918;-80
2023/12/09 07:40:39;;;;;;;1.60;1.20;;;6.80;98.20;;;;;;5039702;28;20462;-82
2023/12/09 07:43:07;;;;;;;1.70;1.40;;;6.80;98.20;;;;;;5040719;28;20548;-80
2023/12/09 07:45:34;;;;;;;1.70;1.30;;;6.80;98.20;;;;;;5038701;28;20572;-80
2023/12/09 07:48:03;;;;;;;1.70;1.33;;;6.80;98.20;;;;;;5019067;28;20484;-80
2023/12/09 07:50:32;;;;;;;1.67;1.30;;;6.80;98.20;;;;;;5041302;28;20753;-79
2023/12/09 07:52:59;;;;;;;1.63;1.30;;;6.80;98.20;;;;;;5037086;28;20485;-79
2023/12/09 07:55:26;;;;;;;1.60;1.20;;;6.80;98.20;;;;;;5039561;28;20491;-84
2023/12/09 07:57:52;;;;;;;1.60;1.30;;;6.80;98.20;;;;;;5022934;28;20571;-81
2023/12/09 08:00:19;;;;;;;1.60;1.20;;;6.80;98.20;;;;;;5037068;28;20473;-81
2023/12/09 08:02:46;;;;;;;1.87;1.67;;;6.80;98.20;;;;;;5032157;28;20506;-79
2023/12/09 08:05:16;;;;;;;1.60;1.20;;;6.80;98.20;;;;;;5037015;28;20498;-81
2023/12/09 08:07:43;;;;;;;1.67;1.30;;;6.80;98.20;;;;;;5017656;28;20495;-82
2023/12/09 08:10:10;;;;;;;1.60;1.20;;;6.80;98.20;;;;;;5034466;28;20463;-81
2023/12/09 08:12:37;;;;;;;1.60;1.27;;;6.80;98.20;;;;;;5036397;28;20499;-84
2023/12/09 08:15:05;;;;;;;1.67;1.30;;;6.90;98.20;;;;;;5034298;28;20464;-81
2023/12/09 08:17:31;;;;;;;1.60;1.20;;;6.90;98.20;;;;;;5032421;28;20511;-82
2023/12/09 08:19:58;;;;;;;1.60;1.20;;;7.00;98.20;;;;;;5036065;28;20492;-80
2023/12/09 08:22:26;;;;;;;1.60;1.30;;;7.00;98.20;;;;;;5042995;28;20481;-82
2023/12/09 08:24:53;;;;;;;1.60;1.30;;;7.10;98.20;;;;;;5034339;28;20483;-81
2023/12/09 08:27:20;;;;;;;1.90;1.70;;;7.10;98.20;;;;;;5017849;28;20583;-82
2023/12/09 08:29:47;;;;;;;1.60;1.20;;;7.10;98.20;;;;;;5031850;28;20534;-80
2023/12/09 08:32:14;;;;;;;1.67;1.30;;;7.20;98.20;;;;;;5021844;28;20485;-82
2023/12/09 08:34:41;;;;;;;1.63;1.30;;;7.20;98.20;;;;;;5021780;28;20478;-82
2023/12/09 08:37:07;;;;;;;1.60;1.20;;;7.20;98.20;;;;;;5013664;28;20857;-82
2023/12/09 08:39:38;;;;;;;2.30;2.03;;;7.30;98.20;;;;;;5019276;28;20461;-81
2023/12/09 08:42:05;;;;;;;1.83;1.63;;;7.30;98.20;;;;;;5000619;28;20484;-81
2023/12/09 08:44:32;;;;;;;1.63;1.27;;;7.30;98.20;;;;;;5014438;28;20478;-80
2023/12/09 08:46:58;;;;;;;1.60;1.20;;;7.30;98.20;;;;;;5013873;28;20575;-80
2023/12/09 08:49:27;;;;;;;1.60;1.20;;;7.40;98.20;;;;;;5017099;28;20474;-79
2023/12/09 08:51:53;;;;;;;1.60;1.20;;;7.40;98.20;;;;;;5002212;28;20592;-79
2023/12/09 08:54:20;;;;;;;1.60;1.20;;;7.40;98.20;;;;;;5011474;28;20468;-78
2023/12/09 08:56:48;;;;;;;1.60;1.20;;;7.50;98.20;;;;;;5013319;28;20536;-81
2023/12/09 08:59:15;;;;;;;1.60;1.30;;;7.50;98.20;;;;;;5020271;28;20559;-81
2023/12/09 09:01:42;;;;;;;1.60;1.30;;;7.60;98.20;;;;;;5010598;28;20494;-81
2023/12/09 09:04:09;;;;;;;1.60;1.20;;;7.60;98.20;;;;;;5021768;28;20559;-80
2023/12/09 09:06:36;;;;;;;1.90;1.70;;;7.60;98.20;;;;;;5008504;28;21128;-80
2023/12/09 09:09:04;;;;;;;1.70;1.30;;;7.60;98.20;;;;;;5017121;28;20491;-79
2023/12/09 09:11:31;;;;;;;1.60;1.23;;;7.60;98.20;;;;;;5006510;28;20471;-80
2023/12/09 09:13:59;;;;;;;1.60;1.20;;;7.60;98.20;;;;;;5015499;28;20475;-80
2023/12/09 09:16:28;;;;;;;1.63;1.27;;;7.70;98.20;;;;;;5006027;28;20508;-80
2023/12/09 09:18:55;;;;;;;1.60;1.20;;;7.70;98.20;;;;;;5019059;28;20460;-81
2023/12/09 09:21:23;;;;;;;1.60;1.20;;;7.70;98.20;;;;;;5008293;28;20517;-80
2023/12/09 09:23:50;;;;;;;1.60;1.20;;;7.70;98.20;;;;;;5026416;28;21152;-81
2023/12/09 09:26:17;;;;;;;1.60;1.20;;;7.70;98.20;;;;;;5004960;28;20484;-82
2023/12/09 09:28:44;;;;;;;1.60;1.20;;;7.70;98.20;;;;;;5011557;28;20504;-80
2023/12/09 09:31:13;;;;;;;1.60;1.20;;;7.80;98.20;;;;;;5003052;28;20486;-80
2023/12/09 09:33:42;;;;;;;1.63;1.30;;;7.80;98.20;;;;;;5020923;28;20469;-81
2023/12/09 09:36:14;;;;;;;1.60;1.20;;;7.80;98.20;;;;;;5093669;22;20466;-81
2023/12/09 09:38:41;;;;;;;1.60;1.20;;;7.80;98.20;;;;;;5052011;28;20850;-80
2023/12/09 09:41:14;;;;;;;1.60;1.20;;;7.80;98.20;;;;;;5044927;28;21089;-81
2023/12/09 09:43:47;;;;;;;1.60;1.20;;;7.90;98.20;;;;;;5063856;28;21431;-81
2023/12/09 09:46:16;;;;;;;1.60;1.20;;;7.90;98.20;;;;;;5043840;28;20738;-81
2023/12/09 09:48:46;;;;;;;1.60;1.30;;;7.90;98.20;;;;;;5064567;28;20463;-80
2023/12/09 09:51:17;;;;;;;1.60;1.20;;;7.90;98.20;;;;;;5042645;28;20481;-80
2023/12/09 09:53:56;;;;;;;1.70;1.40;;;8.00;98.20;;;;;;5054376;28;20462;-82
2023/12/09 09:56:23;;;;;;;1.60;1.20;;;8.10;98.20;;;;;;5043795;28;20826;-81
2023/12/09 09:58:50;;;;;;;1.67;1.27;;;8.10;98.20;;;;;;5057467;28;20473;-81
2023/12/09 10:01:20;;;;;;;1.63;1.20;;;8.20;98.20;;;;;;5050357;28;20496;-82
2023/12/09 10:03:47;;;;;;;1.67;1.30;;;8.20;98.20;;;;;;5064685;28;20489;-83
2023/12/09 10:06:14;;;;;;;1.60;1.20;;;8.30;98.20;;;;;;5049247;28;20488;-82
2023/12/09 10:08:41;;;;;;;1.60;1.13;;;8.30;98.20;;;;;;5069235;28;20482;-83
2023/12/09 10:11:08;;;;;;;1.70;1.30;;;8.30;98.20;;;;;;5049360;28;20476;-82
2023/12/09 10:13:35;;;;;;;1.60;1.10;;;8.30;98.20;;;;;;5067819;28;20458;-81
2023/12/09 10:16:03;;;;;;;1.60;1.20;;;8.30;98.20;;;;;;5048517;28;20497;-82
2023/12/09 10:18:31;;;;;;;1.60;1.20;;;8.30;98.20;;;;;;5069731;28;20469;-81
2023/12/09 10:21:01;;;;;;;1.60;1.20;;;8.30;98.20;;;;;;5048610;28;20458;-81
2023/12/09 10:23:28;;;;;;;1.63;1.20;;;8.40;98.20;;;;;;5069247;28;20470;-81
2023/12/09 10:25:56;;;;;;;1.60;1.20;;;8.40;98.20;;;;;;5049092;28;20875;-82
2023/12/09 10:28:23;;;;;;;1.60;1.20;;;8.40;98.20;;;;;;5066657;28;20559;-82
2023/12/09 10:30:52;;;;;;;2.37;2.17;;;8.50;98.20;;;;;;5041222;28;21002;-81
2023/12/09 10:33:19;;;;;;;1.60;1.20;;;8.60;98.20;;;;;;5069824;28;20462;-80
2023/12/09 10:35:47;;;;;;;1.67;1.20;;;8.60;98.20;;;;;;5056352;28;20492;-80
2023/12/09 10:38:17;;;;;;;1.70;1.40;;;8.70;98.20;;;;;;5068430;28;20506;-80
2023/12/09 10:40:44;;;;;;;1.60;1.20;;;8.80;98.20;;;;;;5056255;28;20500;-82
2023/12/09 10:43:11;;;;;;;1.67;1.20;;;8.90;98.20;;;;;;5042466;28;20589;-82
2023/12/09 10:45:38;;;;;;;1.60;1.20;;;9.00;98.20;;;;;;5056431;28;20836;-81
2023/12/09 10:48:08;;;;;;;1.63;1.20;;;9.00;98.20;;;;;;5061450;28;20975;-82
2023/12/09 10:50:38;;;;;;;1.63;1.20;;;9.10;98.20;;;;;;5054175;28;20462;-82
2023/12/09 10:53:07;;;;;;;1.70;1.20;;;9.10;98.20;;;;;;5050519;28;20586;-80
2023/12/09 10:55:37;;;;;;;1.67;1.20;;;9.10;98.20;;;;;;5055084;28;20900;-82
2023/12/09 10:58:06;;;;;;;1.60;1.20;;;9.20;98.20;;;;;;5055911;28;20484;-82
2023/12/09 11:00:36;;;;;;;1.60;1.20;;;9.20;98.20;;;;;;5052729;28;20459;-82
2023/12/09 11:03:04;;;;;;;1.60;1.13;;;9.20;98.20;;;;;;5052759;28;20508;-82
2023/12/09 11:05:35;;;;;;;1.60;1.20;;;9.20;98.20;;;;;;5054826;28;20520;-83
2023/12/09 11:08:06;;;;;;;1.60;1.20;;;9.20;98.20;;;;;;5059715;28;20486;-82
2023/12/09 11:10:33;;;;;;;2.23;1.97;;;9.20;98.20;;;;;;5052588;28;20466;-82
2023/12/09 11:13:03;;;;;;;1.60;1.20;;;9.20;98.20;;;;;;5055786;28;20476;-82
2023/12/09 11:15:42;;;;;;;1.60;1.20;;;9.20;98.20;;;;;;5055857;28;20965;-81
2023/12/09 11:18:16;;;;;;;1.60;1.20;;;9.20;98.20;;;;;;5058020;28;21060;-81
2023/12/09 11:20:45;;;;;;;1.60;1.10;;;9.20;98.20;;;;;;5052351;28;20497;-82
2023/12/09 11:26:36;;;;;;;1.63;1.20;;;9.20;98.20;;;;;;5013198;28;20485;-81
2023/12/09 11:29:05;;;;;;;1.60;1.10;;;9.20;98.20;;;;;;5060886;28;20721;-81
2023/12/09 11:31:40;;;;;;;1.60;1.10;;;9.20;98.20;;;;;;5045273;28;20489;-83
2023/12/09 11:34:14;;;;;;;1.67;1.27;;;9.20;98.20;;;;;;5058167;28;20542;-82
2023/12/09 11:36:42;;;;;;;1.60;1.20;;;9.20;98.20;;;;;;5048309;28;20568;-81
2023/12/09 11:39:30;;;;;;;1.70;1.30;;;9.20;98.20;;;;;;5059029;28;20459;-81
2023/12/09 11:42:00;;;;;;;1.67;1.20;;;9.20;98.20;;;;;;5038389;28;20486;-81
2023/12/09 11:44:31;;;;;;;1.70;1.20;;;9.20;98.20;;;;;;5057169;28;20474;-82
2023/12/09 11:47:06;;;;;;;1.60;1.20;;;9.20;98.20;;;;;;5048268;28;21055;-84
2023/12/09 11:49:34;;;;;;;1.60;1.20;;;9.20;98.20;;;;;;5057941;28;20562;-80
2023/12/09 11:52:01;;;;;;;4.10;3.43;;;9.20;98.20;;;;;;5049465;28;20482;-81
2023/12/09 11:54:29;;;;;;;1.63;1.20;;;9.20;98.20;;;;;;5056747;28;20494;-78
2023/12/09 11:56:56;;;;;;;1.63;1.20;;;9.30;98.20;;;;;;5051274;28;20541;-78
2023/12/09 11:59:24;;;;;;;1.60;1.10;;;9.30;98.20;;;;;;5056644;28;20473;-78
2023/12/09 12:01:52;;;;;;;1.60;1.10;;;9.30;98.20;;;;;;5050203;28;21068;-78
2023/12/09 12:04:19;;;;;;;1.60;1.20;;;9.30;98.20;;;;;;5059812;28;20485;-79
2023/12/09 12:06:48;;;;;;;1.60;1.20;;;9.40;98.20;;;;;;5043636;28;20489;-81
2023/12/09 12:09:16;;;;;;;2.23;2.03;;;9.50;98.20;;;;;;5052000;28;20500;-79
2023/12/09 12:11:44;;;;;;;1.60;1.10;;;9.50;98.20;;;;;;5043960;28;20481;-82
2023/12/09 12:14:11;;;;;;;1.60;1.10;;;9.50;98.20;;;;;;5058545;28;20489;-81
2023/12/09 12:16:40;;;;;;;1.60;1.20;;;9.50;98.20;;;;;;5043873;28;20482;-82
2023/12/09 12:19:08;;;;;;;1.60;1.20;;;9.60;98.20;;;;;;5053220;28;20461;-80
2023/12/09 12:21:35;;;;;;;1.60;1.20;;;9.50;98.20;;;;;;5043935;28;20488;-78
2023/12/09 12:24:05;;;;;;;1.67;1.20;;;9.60;98.20;;;;;;5057608;28;20491;-81
2023/12/09 12:26:32;;;;;;;1.60;1.10;;;9.60;98.20;;;;;;5044073;28;20492;-81
2023/12/09 12:29:00;;;;;;;1.60;1.20;;;9.60;98.20;;;;;;5051602;28;20463;-78
2023/12/09 12:31:27;;;;;;;1.60;1.10;;;9.60;98.20;;;;;;5041873;28;20556;-79
2023/12/09 12:33:56;;;;;;;1.60;1.20;;;9.60;98.20;;;;;;5052325;28;20565;-79
2023/12/09 12:36:24;;;;;;;1.60;1.10;;;9.50;98.20;;;;;;5041312;28;20505;-78
2023/12/09 12:38:51;;;;;;;1.67;1.20;;;9.50;98.20;;;;;;5060234;28;20474;-78
2023/12/09 12:41:19;;;;;;;1.60;1.10;;;9.50;98.20;;;;;;5039902;28;20536;-78
2023/12/09 12:43:46;;;;;;;1.60;1.20;;;9.40;98.20;;;;;;5062214;28;20466;-79
2023/12/09 12:46:13;;;;;;;1.60;1.10;;;9.40;98.20;;;;;;5044100;28;20487;-81
2023/12/09 12:48:40;;;;;;;1.80;1.43;;;9.40;98.20;;;;;;5060317;28;20488;-79
2023/12/09 12:51:09;;;;;;;1.60;1.10;;;9.40;98.20;;;;;;5043507;28;20823;-80
2023/12/09 12:53:38;;;;;;;1.60;1.10;;;9.40;98.20;;;;;;5061248;28;20463;-82
2023/12/09 12:56:08;;;;;;;1.60;1.20;;;9.40;98.20;;;;;;5041657;28;20926;-81
2023/12/09 12:58:35;;;;;;;1.60;1.10;;;9.30;98.20;;;;;;5061992;28;20565;-81
2023/12/09 13:01:17;;;;;;;1.60;1.10;;;9.30;98.20;;;;;;5043308;28;20463;-79
2023/12/09 13:03:48;;;;;;;1.70;1.20;;;9.30;98.20;;;;;;5053951;28;20466;-81